CDT,Max TemperatureF,Mean TemperatureF,Min TemperatureF,Max Dew PointF,MeanDew PointF,Min DewpointF,Max Humidity, Mean Humidity, Min Humidity, Max Sea Level PressureIn, Mean Sea Level PressureIn, Min Sea Level PressureIn, Max VisibilityMiles, Mean VisibilityMiles, Min VisibilityMiles, Max Wind SpeedMPH, Mean Wind SpeedMPH, Max Gust SpeedMPH,PrecipitationIn, CloudCover, Events, WindDirDegrees
2013-3-1,62,43,24,27,21,16,80,47,18,30.33,30.25,30.18,10,10,10,21,4,28,0.00,1,,352
2013-3-2,62,46,30,28,27,25,80,52,26,30.45,30.33,30.22,10,10,10,14,5,22,0.00,0,,335
2013-3-3,78,53,28,30,24,19,86,40,12,30.22,30.02,29.80,10,10,10,22,6,31,0.00,0,,188
2013-3-4,84,66,48,37,24,10,62,22,7,29.82,29.75,29.67,10,10,7,26,10,37,0.00,1,,207
2013-3-5,62,45,28,41,15,0,62,32,10,30.40,30.29,29.86,10,10,9,33,20,45,0.00,2,,359
2013-3-6,62,42,23,19,12,7,69,33,11,30.44,30.32,30.17,10,10,10,14,4,21,0.00,1,,133
2013-3-7,71,55,39,50,30,14,72,40,26,30.20,30.12,30.05,10,10,10,17,8,26,0.00,3,,153
2013-3-8,64,60,57,59,56,50,100,86,72,30.12,30.03,29.93,10,9,1,24,13,33,0.00,8,Rain,147
2013-3-9,80,68,57,59,58,54,100,78,42,29.92,29.78,29.59,10,9,0,23,14,32,0.86,7,Rain-Thunderstorm,165
2013-3-10,57,47,35,54,30,21,88,46,30,30.12,29.98,29.81,10,10,9,28,14,37,0.00,2,Rain,324
2013-3-11,66,45,24,32,22,14,93,45,14,30.18,30.09,29.98,10,10,9,10,3,20,0.00,0,,284
2013-3-12,75,56,37,32,29,23,75,39,14,30.33,30.10,30.01,10,10,10,20,7,24,0.00,0,,142
2013-3-13,71,54,37,37,33,28,81,44,23,30.44,30.34,30.26,10,10,10,17,6,22,0.00,0,,122
2013-3-14,77,58,39,45,40,36,87,50,28,30.35,30.26,30.18,10,10,7,17,7,25,0.00,0,,174
2013-3-15,82,65,48,50,44,39,87,50,21,30.20,30.06,29.92,10,10,10,20,8,26,0.00,0,,175
2013-3-16,89,71,53,48,46,41,82,47,18,29.92,29.79,29.65,10,10,10,21,10,29,0.00,0,,173
2013-3-17,73,62,50,59,47,37,88,61,36,29.86,29.76,29.69,10,10,7,15,7,20,0.00,3,,348
2013-3-18,71,58,44,48,42,37,93,57,31,29.99,29.86,29.71,10,10,8,20,6,29,0.00,1,,17
2013-3-19,73,56,39,50,44,36,93,65,43,30.12,29.98,29.90,10,10,2,21,5,28,0.06,2,Rain-Thunderstorm,91
2013-3-20,68,55,42,45,33,25,72,44,20,30.31,30.17,30.02,10,10,10,12,7,20,0.00,1,Thunderstorm,64
2013-3-21,80,64,48,55,45,32,73,51,36,30.00,29.73,29.52,10,10,9,24,11,36,0.00,3,,168
2013-3-22,64,55,46,55,45,39,100,74,51,29.82,29.74,29.60,10,10,8,21,9,28,0.00,2,,13
2013-3-23,73,58,44,54,47,41,93,75,38,29.85,29.74,29.62,10,9,2,29,7,41,0.00,5,,70
2013-3-24,53,43,32,46,22,14,82,47,22,30.22,30.11,29.87,10,10,8,33,19,41,0.00,2,,344
2013-3-25,53,40,26,18,15,12,69,36,21,30.40,30.31,30.18,10,10,10,12,5,18,0.00,0,,23
2013-3-26,62,43,24,19,16,10,74,37,13,30.47,30.36,30.24,10,10,10,13,3,18,0.00,1,,154
2013-3-27,71,55,39,45,32,19,63,42,32,30.25,30.18,30.08,10,10,10,23,13,33,0.00,1,,166
2013-3-28,75,60,46,55,50,43,94,70,44,30.17,30.12,30.06,10,10,10,18,10,29,0.00,3,,162
2013-3-29,77,66,55,55,54,54,100,67,44,30.16,30.09,30.03,10,10,8,20,9,25,0.00,4,Rain,165
2013-3-30,84,70,57,61,57,54,94,68,37,30.09,29.98,29.82,10,10,0,31,10,43,0.14,3,Rain-Thunderstorm,163
2013-3-31,77,68,59,61,55,48,100,68,36,30.01,29.94,29.87,10,10,7,15,5,29,0.00,0,Rain,69